Time;durP1;ratioP1;P1;durP2;ratioP2;P2;SDS_P1;SDS_P2;PMS_P1;PMS_P2;Temp;Humidity;BMP_temperature;BMP_pressure;BME280_temperature;BME280_humidity;BME280_pressure;Samples;Min_cycle;Max_cycle;Signal;HPM_P1;HPM_P2
2023/09/24 00:01:44;;;;;;;;;1.00;0.67;;;;;15.41;69.01;100871.63;5040891;28;47482;-74
2023/09/24 00:04:10;;;;;;;;;1.00;1.00;;;;;15.49;69.30;100886.66;5066404;28;45523;-74
2023/09/24 00:06:36;;;;;;;;;0.00;0.00;;;;;15.41;69.32;100874.25;5055875;28;45553;-74
2023/09/24 00:09:03;;;;;;;;;1.00;0.00;;;;;15.40;69.31;100881.28;5073552;28;45943;-74
2023/09/24 00:11:29;;;;;;;;;1.00;0.00;;;;;15.28;69.54;100854.75;5076895;28;45565;-75
2023/09/24 00:13:54;;;;;;;;;0.00;0.00;;;;;15.29;69.17;100848.63;5076989;28;45503;-75
2023/09/24 00:16:20;;;;;;;;;0.00;0.00;;;;;15.36;69.46;100855.75;5077289;28;46525;-76
2023/09/24 00:18:46;;;;;;;;;0.00;0.00;;;;;15.42;69.26;100874.28;5042247;28;45592;-74
2023/09/24 00:21:12;;;;;;;;;0.00;0.00;;;;;15.36;69.45;100862.75;5055607;28;47811;-75
2023/09/24 00:23:39;;;;;;;;;0.33;0.00;;;;;15.31;69.24;100866.19;5065172;28;45442;-75
2023/09/24 00:26:05;;;;;;;;;1.67;0.00;;;;;15.35;69.08;100869.78;5046493;28;45383;-74
2023/09/24 00:28:31;;;;;;;;;1.00;0.00;;;;;15.35;69.27;100866.25;5073034;28;46165;-74
2023/09/24 00:30:58;;;;;;;;;1.00;0.00;;;;;15.27;69.34;100860.88;5039000;28;45469;-79
2023/09/24 00:33:24;;;;;;;;;1.00;1.00;;;;;15.17;69.64;100867.72;5072542;28;45604;-75
2023/09/24 00:35:53;;;;;;;;;0.33;0.00;;;;;15.19;69.63;100860.75;5056780;28;45361;-77
2023/09/24 00:38:20;;;;;;;;;0.00;0.00;;;;;15.26;69.65;100867.88;5057067;28;45538;-79
2023/09/24 00:40:46;;;;;;;;;0.00;0.00;;;;;15.21;69.85;100861.66;5056749;28;46257;-74
2023/09/24 00:43:33;;;;;;;;;0.00;0.00;;;;;15.10;69.56;100857.97;5050490;28;45342;-74
2023/09/24 00:46:04;;;;;;;;;0.00;0.00;;;;;15.03;69.56;100842.94;5056919;28;45471;-75
2023/09/24 00:48:32;;;;;;;;;0.00;0.00;;;;;15.05;69.52;100851.75;5057117;28;45657;-79
2023/09/24 00:51:00;;;;;;;;;1.00;0.00;;;;;15.10;69.46;100858.84;5056747;28;46187;-79
2023/09/24 00:53:31;;;;;;;;;0.00;0.00;;;;;15.03;69.38;100850.84;5038017;28;45351;-75
2023/09/24 00:55:58;;;;;;;;;0.00;0.00;;;;;15.02;69.38;100855.22;5065427;28;45740;-75
2023/09/24 00:58:25;;;;;;;;;1.00;0.00;;;;;15.08;69.10;100864.94;5076318;28;45394;-75
2023/09/24 01:00:55;;;;;;;;;0.00;0.00;;;;;15.06;69.26;100862.31;5056232;28;46212;-75
2023/09/24 01:03:26;;;;;;;;;0.00;0.00;;;;;15.06;69.54;100864.94;5071274;28;45497;-75
2023/09/24 01:05:52;;;;;;;;;1.00;0.00;;;;;15.02;69.44;100855.22;5060903;28;45341;-78
2023/09/24 01:08:22;;;;;;;;;0.00;0.00;;;;;15.01;69.21;100845.53;5056738;28;45242;-74
2023/09/24 01:10:48;;;;;;;;;0.00;0.00;;;;;14.98;68.79;100842.88;5051869;28;45526;-79
2023/09/24 01:13:15;;;;;;;;;0.00;0.00;;;;;14.98;68.69;100850.78;5061784;28;45422;-74
2023/09/24 01:15:45;;;;;;;;;1.00;0.00;;;;;14.91;68.96;100838.34;5066199;28;45509;-75
2023/09/24 01:18:11;;;;;;;;;1.00;0.00;;;;;14.88;69.02;100841.84;5070876;28;45497;-77
2023/09/24 01:20:40;;;;;;;;;0.00;0.00;;;;;14.92;68.91;100845.38;5057413;28;46252;-78
2023/09/24 01:23:10;;;;;;;;;0.00;0.00;;;;;14.83;69.62;100838.22;5063081;28;45353;-79
2023/09/24 01:25:37;;;;;;;;;1.00;0.00;;;;;14.79;69.32;100832.91;5064471;28;45437;-74
2023/09/24 01:28:03;;;;;;;;;0.00;0.00;;;;;14.76;69.46;100831.06;5056843;28;45423;-74
2023/09/24 01:30:30;;;;;;;;;1.00;0.00;;;;;14.70;69.65;100826.63;5057747;28;46167;-79
2023/09/24 01:32:57;;;;;;;;;0.67;0.00;;;;;14.71;69.88;100843.28;5068257;28;45427;-74
2023/09/24 01:35:27;;;;;;;;;1.00;0.00;;;;;14.51;70.27;100825.34;5066803;28;45343;-75
2023/09/24 01:37:55;;;;;;;;;0.00;0.00;;;;;14.53;70.59;100833.28;5058990;28;45376;-74
2023/09/24 01:40:24;;;;;;;;;1.00;0.00;;;;;14.50;70.03;100820.97;5037524;28;45933;-75
2023/09/24 01:42:52;;;;;;;;;1.00;0.00;;;;;14.47;70.87;100810.38;5057624;28;45548;-79
2023/09/24 01:45:18;;;;;;;;;0.00;0.00;;;;;14.53;70.80;100821.00;5058252;28;45392;-74
2023/09/24 01:47:49;;;;;;;;;2.00;1.00;;;;;14.55;70.01;100821.03;5058632;28;45498;-74
2023/09/24 01:50:16;;;;;;;;;0.00;0.00;;;;;14.40;70.81;100807.63;5040408;28;45988;-74
2023/09/24 01:52:43;;;;;;;;;0.50;0.50;;;;;14.39;70.60;100806.75;5066150;28;45497;-74
2023/09/24 01:55:13;;;;;;;;;0.33;0.33;;;;;14.50;71.03;100820.06;5062294;28;45426;-75
2023/09/24 01:57:41;;;;;;;;;1.33;0.33;;;;;14.44;70.83;100809.44;5058412;28;45517;-74
2023/09/24 02:03:07;;;;;;;;;0.67;0.00;;;;;14.44;70.56;100807.72;5036010;28;45518;-75
2023/09/24 02:05:35;;;;;;;;;0.33;0.33;;;;;14.58;70.24;100807.97;5075201;27;45449;-78
2023/09/24 02:08:10;;;;;;;;;1.00;0.00;;;;;14.47;70.55;100810.38;5058043;28;45437;-75
2023/09/24 02:10:40;;;;;;;;;1.00;1.00;;;;;14.45;70.28;100804.22;5059267;28;46220;-76
2023/09/24 02:13:10;;;;;;;;;1.00;0.00;;;;;14.45;70.14;100805.97;5054007;28;45501;-74
2023/09/24 02:15:38;;;;;;;;;2.00;0.00;;;;;14.56;69.28;100798.25;5064359;28;45496;-75
2023/09/24 02:18:04;;;;;;;;;0.00;0.00;;;;;14.36;69.85;100797.91;5070023;28;45490;-74
2023/09/24 02:22:58;;;;;;;;;0.00;0.00;;;;;14.33;69.33;100798.75;5071032;28;45272;-75
2023/09/24 02:25:28;;;;;;;;;1.00;0.00;;;;;14.31;69.84;100798.72;5056954;28;45335;-74
2023/09/24 02:27:55;;;;;;;;;0.00;0.00;;;;;14.33;69.86;100804.00;5063946;28;45517;-79
2023/09/24 02:30:23;;;;;;;;;0.00;0.00;;;;;14.33;70.12;100804.00;5069509;28;45961;-74
2023/09/24 02:32:49;;;;;;;;;0.00;0.00;;;;;14.14;70.24;100781.72;5072176;28;45604;-75
2023/09/24 02:35:16;;;;;;;;;0.00;0.00;;;;;14.26;70.39;100804.72;5060947;28;45205;-74
2023/09/24 02:37:46;;;;;;;;;1.00;0.00;;;;;14.23;70.76;100799.44;5078563;28;45584;-74
2023/09/24 02:40:31;;;;;;;;;0.00;0.00;;;;;14.27;70.69;100809.13;5078353;27;46002;-74
2023/09/24 02:43:01;;;;;;;;;0.00;0.00;;;;;14.23;70.38;100804.69;5061640;28;45377;-77
2023/09/24 02:45:29;;;;;;;;;0.00;0.00;;;;;14.13;70.92;100790.47;5073175;28;45494;-77
2023/09/24 02:47:56;;;;;;;;;0.00;0.00;;;;;13.89;70.74;100747.13;5059212;28;45362;-79
2023/09/24 02:50:27;;;;;;;;;0.00;0.00;;;;;14.18;70.61;100782.69;5058778;28;45446;-78
2023/09/24 02:53:02;;;;;;;;;0.00;0.00;;;;;14.23;70.36;100804.69;5056704;28;45473;-75
2023/09/24 02:55:30;;;;;;;;;0.00;0.00;;;;;14.10;69.82;100779.91;5070410;28;45597;-79
2023/09/24 02:57:56;;;;;;;;;0.00;0.00;;;;;14.20;69.91;100796.72;5061170;28;45292;-75
2023/09/24 03:00:33;;;;;;;;;0.00;0.00;;;;;14.17;70.07;100797.56;5062863;28;46257;-75
2023/09/24 03:03:00;;;;;;;;;0.25;0.25;;;;;14.16;69.98;100792.28;5045353;28;45644;-79
2023/09/24 03:05:28;;;;;;;;;1.00;1.00;;;;;14.10;70.64;100788.66;5065278;28;45241;-74
2023/09/24 03:07:54;;;;;;;;;0.00;0.00;;;;;14.04;70.81;100770.16;5075669;27;45294;-76
2023/09/24 03:10:21;;;;;;;;;0.00;0.00;;;;;14.07;70.32;100788.63;5065852;28;45384;-77
2023/09/24 03:12:48;;;;;;;;;0.00;0.00;;;;;14.03;70.25;100781.53;5074555;28;45465;-76
2023/09/24 03:15:14;;;;;;;;;0.00;0.00;;;;;14.07;70.23;100786.00;5061874;28;45423;-79
2023/09/24 03:17:41;;;;;;;;;0.00;0.00;;;;;14.01;69.86;100778.00;5059149;28;45617;-79
2023/09/24 03:20:21;;;;;;;;;0.00;0.00;;;;;14.07;69.47;100785.13;5048094;28;46361;-79
2023/09/24 03:22:58;;;;;;;;;0.00;0.00;;;;;14.02;69.85;100778.88;5081448;27;45476;-75
2023/09/24 03:25:27;;;;;;;;;0.00;0.00;;;;;14.03;69.71;100794.66;5042573;28;45585;-75
2023/09/24 03:27:55;;;;;;;;;0.75;0.00;;;;;14.02;69.73;100790.25;5059982;28;45362;-76
2023/09/24 03:30:21;;;;;;;;;0.00;0.00;;;;;14.00;70.25;100793.72;5064121;28;46068;-76
2023/09/24 03:32:49;;;;;;;;;1.00;1.00;;;;;13.94;70.38;100783.97;5073103;28;45459;-79
2023/09/24 03:35:17;;;;;;;;;0.00;0.00;;;;;13.90;70.56;100785.63;5042455;28;45402;-75
2023/09/24 03:37:43;;;;;;;;;0.25;0.25;;;;;13.75;70.83;100785.34;5068862;28;45445;-74
2023/09/24 03:40:18;;;;;;;;;0.67;0.00;;;;;13.63;71.28;100769.34;5081681;28;45260;-78
2023/09/24 03:42:45;;;;;;;;;0.00;0.00;;;;;13.41;71.21;100744.34;5045690;28;45543;-74
2023/09/24 03:45:13;;;;;;;;;0.00;0.00;;;;;13.57;71.44;100777.97;5060696;28;45308;-74
2023/09/24 03:47:39;;;;;;;;;1.75;1.00;;;;;13.61;71.31;100782.44;5061274;28;45403;-76
2023/09/24 03:50:08;;;;;;;;;0.67;0.00;;;;;13.60;71.65;100774.53;5072966;28;46007;-74
2023/09/24 03:52:35;;;;;;;;;1.00;0.00;;;;;13.61;71.04;100776.28;5080350;28;45429;-76
2023/09/24 03:55:00;;;;;;;;;2.25;0.00;;;;;13.50;72.03;100763.81;5063250;28;45318;-74
2023/09/24 03:57:29;;;;;;;;;0.00;0.00;;;;;13.47;71.79;100749.75;5060982;28;45386;-74
2023/09/24 03:59:58;;;;;;;;;0.00;0.00;;;;;13.63;71.53;100769.34;5058947;28;46310;-75
2023/09/24 04:02:26;;;;;;;;;1.00;0.00;;;;;13.60;71.10;100761.38;5048816;28;45410;-74
2023/09/24 04:04:53;;;;;;;;;0.00;0.00;;;;;13.58;70.80;100765.72;5069775;28;45332;-75
2023/09/24 04:07:20;;;;;;;;;0.00;0.00;;;;;13.56;70.55;100759.56;5059870;28;45457;-74
2023/09/24 04:09:50;;;;;;;;;1.00;0.00;;;;;13.46;70.62;100746.22;5076116;28;45504;-76
2023/09/24 04:12:17;;;;;;;;;1.00;0.00;;;;;13.57;70.43;100764.84;5058353;28;45421;-78
2023/09/24 04:14:42;;;;;;;;;1.00;0.00;;;;;13.37;70.84;100730.31;5082072;28;45416;-74
2023/09/24 04:17:09;;;;;;;;;0.00;0.00;;;;;13.46;70.80;100750.59;5081785;28;45436;-76
2023/09/24 04:19:35;;;;;;;;;0.00;0.00;;;;;13.47;71.14;100757.63;5081563;28;46184;-77
2023/09/24 04:22:01;;;;;;;;;0.00;0.00;;;;;13.40;70.92;100734.72;5082670;28;45149;-78
2023/09/24 04:24:27;;;;;;;;;0.00;0.00;;;;;13.42;71.05;100746.13;5081371;28;45352;-78
2023/09/24 04:26:57;;;;;;;;;1.25;0.00;;;;;13.49;70.55;100753.31;5081363;28;45203;-75
2023/09/24 04:29:23;;;;;;;;;0.00;0.00;;;;;13.49;70.76;100753.31;5081131;28;46173;-74
2023/09/24 04:31:58;;;;;;;;;0.67;0.67;;;;;13.48;71.00;100754.16;5063072;28;45316;-77
2023/09/24 04:34:28;;;;;;;;;0.00;0.00;;;;;13.40;70.94;100755.72;5064751;28;45354;-74
2023/09/24 04:36:54;;;;;;;;;0.00;0.00;;;;;13.26;71.40;100734.41;5066007;28;45543;-74
2023/09/24 04:39:20;;;;;;;;;0.00;0.00;;;;;13.29;71.69;100745.88;5060837;28;45425;-78
2023/09/24 04:41:47;;;;;;;;;0.00;0.00;;;;;13.27;70.99;100747.56;5043294;28;45466;-74
2023/09/24 04:44:13;;;;;;;;;0.00;0.00;;;;;13.24;71.32;100736.09;5048913;28;45466;-74
2023/09/24 04:46:40;;;;;;;;;1.00;0.00;;;;;13.28;71.63;100745.81;5071803;28;45751;-76
2023/09/24 04:49:08;;;;;;;;;0.00;0.00;;;;;13.33;71.37;100739.84;5078389;28;45363;-74
2023/09/24 04:51:34;;;;;;;;;1.00;0.00;;;;;13.31;71.82;100735.44;5063377;28;44780;-74
2023/09/24 04:54:03;;;;;;;;;1.25;0.50;;;;;13.33;71.56;100739.84;5080454;28;45355;-77
2023/09/24 04:56:29;;;;;;;;;6.50;6.50;;;;;13.24;71.49;100720.34;5098382;28;45326;-75
2023/09/24 04:58:55;;;;;;;;;9.00;8.75;;;;;13.27;71.41;100728.28;5074853;28;45608;-79
2023/09/24 05:01:20;;;;;;;;;3.25;3.25;;;;;13.25;71.65;100725.66;5059815;28;45263;-78
2023/09/24 05:03:49;;;;;;;;;0.75;0.75;;;;;13.36;70.69;100735.50;5075218;28;45433;-78
2023/09/24 05:06:14;;;;;;;;;0.50;0.50;;;;;13.29;71.23;100730.13;5042074;28;45620;-78
2023/09/24 05:08:40;;;;;;;;;1.25;1.25;;;;;13.33;70.69;100737.22;5065600;28;45945;-78
2023/09/24 05:11:10;;;;;;;;;0.50;0.50;;;;;13.32;70.68;100737.19;5056033;28;45498;-78
2023/09/24 05:13:36;;;;;;;;;0.00;0.00;;;;;13.23;70.76;100729.97;5072013;28;45419;-74
2023/09/24 05:16:01;;;;;;;;;2.25;1.00;;;;;13.31;70.54;100735.44;5062150;28;45583;-77
2023/09/24 05:18:27;;;;;;;;;13.75;13.00;;;;;13.23;70.44;100726.44;5048357;28;45305;-73
2023/09/24 05:20:54;;;;;;;;;1.00;1.00;;;;;13.29;70.38;100740.63;5069526;28;45351;-74
2023/09/24 05:23:22;;;;;;;;;1.00;1.00;;;;;13.22;69.93;100729.94;5040881;28;45376;-77
2023/09/24 05:25:50;;;;;;;;;0.00;0.00;;;;;13.23;70.44;100729.06;5070731;27;45728;-76
2023/09/24 05:28:17;;;;;;;;;1.00;0.00;;;;;13.21;70.70;100731.69;5056282;28;46026;-76
2023/09/24 05:30:50;;;;;;;;;1.00;1.00;;;;;13.14;70.68;100724.50;5072643;27;45349;-73
2023/09/24 05:33:16;;;;;;;;;1.00;1.00;;;;;13.11;70.45;100722.72;5060979;28;45485;-74
2023/09/24 05:35:41;;;;;;;;;1.25;1.25;;;;;13.10;70.34;100720.06;5061076;28;45631;-73
2023/09/24 05:38:07;;;;;;;;;1.50;0.50;;;;;13.17;70.58;100736.81;5073332;27;45616;-77
2023/09/24 05:40:38;;;;;;;;;1.00;1.00;;;;;12.76;70.72;100679.06;5059408;28;45333;-78
2023/09/24 05:43:04;;;;;;;;;1.00;1.00;;;;;13.07;71.12;100730.47;5059735;28;46044;-73
2023/09/24 05:45:29;;;;;;;;;1.00;0.00;;;;;13.07;71.28;100735.69;5069844;27;45287;-73
2023/09/24 05:47:56;;;;;;;;;0.75;0.75;;;;;12.90;71.24;100696.00;5079215;27;45282;-78
2023/09/24 05:50:22;;;;;;;;;1.00;0.75;;;;;12.87;70.88;100685.44;5051099;28;45588;-78
2023/09/24 05:52:48;;;;;;;;;0.50;0.50;;;;;13.01;70.96;100711.97;5072961;28;45545;-77
2023/09/24 05:55:14;;;;;;;;;1.00;0.00;;;;;12.79;70.98;100671.25;5059338;28;45362;-77
2023/09/24 05:57:39;;;;;;;;;1.00;1.00;;;;;13.09;71.11;100721.78;5064021;28;45465;-78
2023/09/24 06:00:08;;;;;;;;;1.00;1.00;;;;;13.03;71.35;100702.38;5066874;28;45506;-75
2023/09/24 06:02:34;;;;;;;;;2.50;2.00;;;;;13.17;71.21;100727.22;5072671;28;45517;-76
2023/09/24 06:04:59;;;;;;;;;1.75;1.00;;;;;13.16;71.21;100714.06;5059152;28;45324;-78
2023/09/24 06:07:28;;;;;;;;;2.00;1.00;;;;;13.16;70.38;100714.94;5063529;28;45967;-77
2023/09/24 06:09:56;;;;;;;;;2.00;2.00;;;;;13.20;70.37;100718.53;5042657;28;45427;-74
2023/09/24 06:12:24;;;;;;;;;2.00;2.00;;;;;13.17;70.25;100719.34;5072079;28;45494;-77
2023/09/24 06:14:49;;;;;;;;;1.25;1.25;;;;;13.21;70.45;100722.91;5061750;28;45533;-78
2023/09/24 06:17:15;;;;;;;;;2.00;1.00;;;;;13.21;69.62;100722.91;5073322;28;45307;-76
2023/09/24 06:19:41;;;;;;;;;1.00;1.00;;;;;13.17;69.80;100724.59;5067647;28;45438;-78
2023/09/24 06:22:07;;;;;;;;;0.75;0.00;;;;;13.15;70.24;100723.69;5065850;28;45662;-77
2023/09/24 06:24:33;;;;;;;;;1.00;1.00;;;;;13.11;69.96;100720.09;5058863;28;45494;-77
2023/09/24 06:26:59;;;;;;;;;0.00;0.00;;;;;13.14;69.86;100735.00;5042461;28;45799;-78
2023/09/24 06:29:24;;;;;;;;;2.00;1.00;;;;;13.11;69.63;100721.81;5067143;28;45522;-78
2023/09/24 06:31:52;;;;;;;;;1.00;1.00;;;;;13.20;69.21;100722.03;5047936;28;45388;-78
2023/09/24 06:34:18;;;;;;;;;1.00;1.00;;;;;13.26;69.29;100732.66;5059810;28;45455;-79
2023/09/24 06:36:44;;;;;;;;;0.00;0.00;;;;;13.25;69.42;100725.66;5073469;28;45366;-78
2023/09/24 06:39:13;;;;;;;;;0.00;0.00;;;;;13.22;69.90;100727.31;5058550;28;45229;-78
2023/09/24 06:41:39;;;;;;;;;2.50;1.75;;;;;13.02;70.32;100717.25;5058070;28;45382;-78
2023/09/24 06:44:05;;;;;;;;;3.00;2.00;;;;;13.00;70.14;100721.56;5067043;28;45584;-78
2023/09/24 06:46:31;;;;;;;;;1.25;1.00;;;;;12.99;70.06;100717.19;5057338;28;47868;-74
2023/09/24 06:48:57;;;;;;;;;3.75;3.00;;;;;13.10;69.95;100718.31;5069337;28;45565;-78
2023/09/24 06:51:23;;;;;;;;;4.00;4.00;;;;;13.15;70.36;100713.19;5040887;28;45351;-78
2023/09/24 06:53:51;;;;;;;;;1.00;1.00;;;;;13.12;70.54;100697.38;5058762;28;45502;-77
2023/09/24 06:56:16;;;;;;;;;1.75;1.75;;;;;13.19;70.62;100690.50;5073186;28;45505;-78
2023/09/24 06:58:42;;;;;;;;;2.00;2.00;;;;;13.92;73.99;100688.50;5066364;28;45453;-78
2023/09/24 07:01:09;;;;;;;;;1.00;1.00;;;;;17.00;63.80;100697.66;5065337;28;45586;-76
2023/09/24 07:03:35;;;;;;;;;1.00;0.33;;;;;19.66;57.80;100685.50;5058351;28;45727;-78
2023/09/24 07:06:06;;;;;;;;;1.00;1.00;;;;;21.58;51.69;100682.94;5058058;28;46097;-78
2023/09/24 07:08:35;;;;;;;;;1.00;1.00;;;;;23.06;47.52;100677.97;5066793;28;45446;-78
2023/09/24 07:11:26;;;;;;;;;1.00;1.00;;;;;24.26;43.79;100686.03;5060488;27;45338;-75
2023/09/24 07:13:52;;;;;;;;;1.67;1.00;;;;;25.26;41.06;100674.56;5055256;28;45397;-76
2023/09/24 07:16:23;;;;;;;;;0.00;0.00;;;;;26.28;40.47;100688.38;5048081;28;46194;-77
2023/09/24 07:18:50;;;;;;;;;1.33;1.00;;;;;27.18;39.84;100676.38;5063979;27;45424;-78
2023/09/24 07:21:17;;;;;;;;;1.00;0.00;;;;;27.92;38.45;100670.91;5040443;28;45359;-79
2023/09/24 07:23:43;;;;;;;;;0.00;0.00;;;;;28.80;36.10;100669.94;5072190;28;45506;-76
2023/09/24 07:26:08;;;;;;;;;0.33;0.33;;;;;29.45;36.15;100668.81;5066218;27;46111;-78
2023/09/24 07:28:35;;;;;;;;;0.33;0.33;;;;;30.05;33.64;100654.31;5041063;28;45683;-79
2023/09/24 07:31:00;;;;;;;;;1.00;1.00;;;;;30.48;33.59;100654.84;5073347;28;45374;-78
2023/09/24 07:33:26;;;;;;;;;0.67;0.67;;;;;30.99;32.05;100661.19;5039799;28;45597;-76
2023/09/24 07:35:52;;;;;;;;;1.00;1.00;;;;;31.43;31.92;100641.69;5066235;28;46126;-78
2023/09/24 07:38:18;;;;;;;;;1.00;1.00;;;;;32.08;30.94;100651.63;5046044;28;45522;-79
2023/09/24 07:40:44;;;;;;;;;1.00;1.00;;;;;32.69;29.68;100664.22;5039297;28;45521;-78
2023/09/24 07:43:10;;;;;;;;;1.00;1.00;;;;;33.25;29.61;100656.28;5059662;28;45417;-77
2023/09/24 07:45:36;;;;;;;;;0.67;0.67;;;;;33.58;29.07;100656.91;5058500;28;46933;-78
2023/09/24 07:48:06;;;;;;;;;0.67;0.33;;;;;33.87;27.63;100630.66;5056853;28;45558;-75
2023/09/24 07:50:32;;;;;;;;;1.33;1.33;;;;;33.93;27.67;100659.19;5072989;28;45466;-78
2023/09/24 07:52:58;;;;;;;;;0.33;0.33;;;;;34.43;26.55;100641.38;5074843;28;45419;-74
2023/09/24 07:55:24;;;;;;;;;0.00;0.00;;;;;34.69;25.90;100663.16;5076377;27;45625;-77
2023/09/24 07:57:50;;;;;;;;;0.00;0.00;;;;;34.46;25.33;100661.03;5073281;28;45493;-78
2023/09/24 08:00:16;;;;;;;;;0.00;0.00;;;;;34.65;25.75;100654.31;5056031;28;45418;-77
2023/09/24 08:02:44;;;;;;;;;0.00;0.00;;;;;34.91;26.78;100657.97;5056565;28;45611;-79
2023/09/24 08:05:10;;;;;;;;;0.00;0.00;;;;;35.02;25.49;100658.06;5072737;28;46216;-79
2023/09/24 08:07:36;;;;;;;;;0.00;0.00;;;;;35.28;26.07;100660.81;5074398;28;45497;-79
2023/09/24 08:10:01;;;;;;;;;0.00;0.00;;;;;35.56;25.19;100661.53;5057994;28;45478;-78
2023/09/24 08:12:27;;;;;;;;;0.00;0.00;;;;;36.02;25.17;100666.28;5074772;28;45508;-77
2023/09/24 08:14:53;;;;;;;;;0.33;0.00;;;;;36.43;25.00;100665.00;5075267;28;46452;-78
2023/09/24 08:17:18;;;;;;;;;0.00;0.00;;;;;36.64;24.79;100665.22;5075629;28;45465;-79
2023/09/24 08:19:44;;;;;;;;;0.00;0.00;;;;;36.93;23.95;100657.50;5065260;28;45477;-78
2023/09/24 08:22:09;;;;;;;;;0.00;0.00;;;;;36.40;23.97;100654.38;5072318;28;45387;-78
2023/09/24 08:24:36;;;;;;;;;0.00;0.00;;;;;36.34;24.84;100669.31;5072757;28;46134;-78
2023/09/24 08:27:02;;;;;;;;;0.33;0.33;;;;;36.45;24.62;100668.50;5064232;27;45464;-74
2023/09/24 08:29:28;;;;;;;;;0.00;0.00;;;;;36.84;24.12;100658.22;5090173;27;45492;-81
2023/09/24 08:31:54;;;;;;;;;0.00;0.00;;;;;37.38;23.80;100654.78;5063910;28;45482;-81
2023/09/24 08:34:19;;;;;;;;;0.00;0.00;;;;;37.89;23.45;100649.81;5071861;28;45958;-78
2023/09/24 08:36:45;;;;;;;;;0.00;0.00;;;;;38.00;22.80;100656.09;5082827;27;45338;-78
2023/09/24 08:39:14;;;;;;;;;0.00;0.00;;;;;37.76;22.50;100656.28;5065084;28;45549;-80
2023/09/24 08:41:44;;;;;;;;;0.00;0.00;;;;;37.67;23.07;100654.31;5063768;28;45220;-78
2023/09/24 08:44:14;;;;;;;;;1.00;0.00;;;;;37.66;23.61;100649.84;5056085;28;45529;-75
2023/09/24 08:46:41;;;;;;;;;3.00;2.33;;;;;37.86;23.66;100650.06;5069883;28;45323;-76
2023/09/24 08:49:06;;;;;;;;;1.00;1.00;;;;;38.16;24.07;100638.44;5047943;28;45473;-77
2023/09/24 08:51:33;;;;;;;;;0.00;0.00;;;;;38.43;22.30;100648.00;5062434;28;45455;-77
2023/09/24 08:54:00;;;;;;;;;0.00;0.00;;;;;38.71;21.63;100630.97;5071368;28;46038;-79
2023/09/24 08:56:26;;;;;;;;;1.00;0.00;;;;;38.89;21.57;100644.88;5062414;28;45470;-79
2023/09/24 08:58:53;;;;;;;;;0.67;0.67;;;;;38.94;19.75;100639.91;5058419;28;45520;-76
2023/09/24 09:01:18;;;;;;;;;0.00;0.00;;;;;38.87;21.97;100635.97;5076387;28;45326;-76
2023/09/24 09:03:44;;;;;;;;;0.00;0.00;;;;;39.07;20.64;100647.03;5058503;28;45418;-76
2023/09/24 09:06:12;;;;;;;;;0.00;0.00;;;;;38.99;20.34;100647.69;5070439;28;45961;-78
2023/09/24 09:08:50;;;;;;;;;0.00;0.00;;;;;39.06;19.59;100635.25;5038374;28;45813;-76
2023/09/24 09:11:19;;;;;;;;;0.00;0.00;;;;;39.31;19.88;100638.50;5038900;28;45379;-77
2023/09/24 09:13:48;;;;;;;;;0.00;0.00;;;;;39.52;19.53;100644.78;5051799;28;46288;-77
2023/09/24 09:16:16;;;;;;;;;0.00;0.00;;;;;39.63;18.89;100643.78;5042654;28;45446;-76
2023/09/24 09:18:42;;;;;;;;;0.00;0.00;;;;;39.53;18.65;100626.50;5047093;28;45665;-77
2023/09/24 09:21:08;;;;;;;;;0.00;0.00;;;;;39.30;18.97;100629.44;5053425;28;45611;-76
2023/09/24 09:23:37;;;;;;;;;0.00;0.00;;;;;39.24;18.45;100631.88;5041815;28;47041;-76
2023/09/24 09:26:03;;;;;;;;;0.00;0.00;;;;;39.05;18.53;100633.50;5066214;28;45403;-76
2023/09/24 09:28:31;;;;;;;;;0.00;0.00;;;;;38.86;19.10;100636.97;5068808;28;45512;-77
2023/09/24 09:31:08;;;;;;;;;0.00;0.00;;;;;38.64;19.58;100631.66;5075307;28;45445;-76
2023/09/24 09:33:37;;;;;;;;;0.00;0.00;;;;;38.44;21.08;100633.34;5068671;28;46241;-75
2023/09/24 09:36:03;;;;;;;;;0.00;0.00;;;;;38.65;20.69;100633.41;5066586;28;45341;-75
2023/09/24 09:38:29;;;;;;;;;0.00;0.00;;;;;38.48;20.16;100622.06;5074748;28;45580;-77
2023/09/24 09:40:59;;;;;;;;;0.33;0.00;;;;;38.44;19.18;100619.72;5068859;28;45493;-75
2023/09/24 09:43:29;;;;;;;;;0.00;0.00;;;;;38.24;19.93;100625.00;5067394;28;45438;-75
2023/09/24 09:45:57;;;;;;;;;0.00;0.00;;;;;37.63;20.28;100625.59;5055660;28;45368;-75
2023/09/24 09:48:31;;;;;;;;;0.00;0.00;;;;;37.80;20.90;100626.88;5037459;28;45383;-76
2023/09/24 09:51:08;;;;;;;;;0.00;0.00;;;;;37.89;19.96;100614.38;5056492;28;45300;-74
2023/09/24 09:53:35;;;;;;;;;0.00;0.00;;;;;37.89;20.57;100619.81;5055260;28;46538;-74
2023/09/24 09:56:04;;;;;;;;;0.00;0.00;;;;;38.01;19.17;100616.03;5063278;28;45439;-76
2023/09/24 09:58:33;;;;;;;;;0.00;0.00;;;;;37.52;19.43;100609.22;5044817;28;45399;-77
2023/09/24 10:01:00;;;;;;;;;0.67;0.67;;;;;37.28;20.18;100612.97;5066404;28;46147;-74
2023/09/24 10:03:28;;;;;;;;;0.00;0.00;;;;;36.98;21.08;100619.00;5036190;28;45597;-74
2023/09/24 10:05:57;;;;;;;;;0.00;0.00;;;;;37.21;20.77;100607.16;5054982;28;45433;-76
2023/09/24 10:08:47;;;;;;;;;0.00;0.00;;;;;37.11;21.43;100599.84;5067970;28;45726;-73
2023/09/24 10:11:32;;;;;;;;;0.00;0.00;;;;;37.11;21.47;100599.84;5072893;28;45312;-75
2023/09/24 10:14:05;;;;;;;;;0.00;0.00;;;;;36.94;20.91;100596.59;5062940;28;45707;-75
2023/09/24 10:16:38;;;;;;;;;0.00;0.00;;;;;36.86;20.87;100601.78;5064531;28;45566;-74
2023/09/24 10:19:13;;;;;;;;;0.00;0.00;;;;;36.91;20.20;100588.69;5059335;28;45461;-77
2023/09/24 10:21:44;;;;;;;;;0.00;0.00;;;;;36.77;21.01;100599.81;5059234;28;45634;-76
2023/09/24 10:24:10;;;;;;;;;0.00;0.00;;;;;36.72;21.52;100594.72;5059247;28;45285;-79
2023/09/24 10:26:54;;;;;;;;;0.00;0.00;;;;;36.81;20.15;100595.88;5066706;28;45295;-74
2023/09/24 10:29:38;;;;;;;;;0.00;0.00;;;;;36.63;20.55;100595.44;5040888;28;45970;-77
2023/09/24 10:32:08;;;;;;;;;0.00;0.00;;;;;36.58;20.07;100595.78;5055255;28;45630;-74
2023/09/24 10:34:53;;;;;;;;;2.00;2.00;;;;;36.11;20.94;100586.75;5058363;28;45382;-75
2023/09/24 10:37:20;;;;;;;;;0.00;0.00;;;;;35.89;21.42;100567.59;5056468;28;45450;-76
2023/09/24 10:42:39;;;;;;;;;0.00;0.00;;;;;35.60;21.58;100571.50;5071849;27;45554;-77
2023/09/24 10:45:07;;;;;;;;;0.00;0.00;;;;;35.57;22.31;100579.00;5070890;28;45378;-78
2023/09/24 10:47:37;;;;;;;;;0.00;0.00;;;;;35.55;22.33;100570.97;5077528;27;45350;-77
2023/09/24 10:50:09;;;;;;;;;0.00;0.00;;;;;35.30;22.91;100566.50;5059286;28;45599;-77
2023/09/24 10:52:57;;;;;;;;;0.00;0.00;;;;;34.91;22.87;100562.97;5068133;28;45490;-78
2023/09/24 10:55:31;;;;;;;;;0.00;0.00;;;;;34.81;23.27;100554.59;5077135;28;45718;-77
2023/09/24 10:58:14;;;;;;;;;0.00;0.00;;;;;34.75;23.28;100552.34;5058647;28;45366;-77
2023/09/24 11:00:41;;;;;;;;;0.00;0.00;;;;;34.31;22.78;100540.03;5069644;27;45441;-77
2023/09/24 11:03:13;;;;;;;;;0.00;0.00;;;;;33.95;22.81;100560.56;5078061;27;45489;-77
2023/09/24 11:05:47;;;;;;;;;2.00;1.00;;;;;33.83;23.23;100539.72;5044935;28;45607;-77
2023/09/24 11:08:15;;;;;;;;;0.00;0.00;;;;;33.55;22.81;100533.41;5078233;28;45485;-77
2023/09/24 11:10:46;;;;;;;;;0.00;0.00;;;;;33.44;23.67;100544.91;5063540;28;45485;-78
2023/09/24 11:13:11;;;;;;;;;4.00;4.00;;;;;33.47;23.59;100542.03;5055537;28;45330;-77
2023/09/24 11:15:38;;;;;;;;;0.00;0.00;;;;;33.27;23.85;100535.22;5060313;28;45386;-78
2023/09/24 11:18:06;;;;;;;;;0.00;0.00;;;;;33.13;23.79;100513.59;5078250;28;45320;-77
2023/09/24 11:20:34;;;;;;;;;1.00;0.00;;;;;33.09;24.05;100533.72;5063126;28;45541;-78
2023/09/24 11:23:09;;;;;;;;;0.00;0.00;;;;;32.92;24.66;100521.22;5042643;28;45704;-77
2023/09/24 11:25:35;;;;;;;;;1.33;1.00;;;;;32.97;24.93;100540.75;5052968;28;46271;-77
2023/09/24 11:28:02;;;;;;;;;0.00;0.00;;;;;32.94;24.76;100540.06;5057767;28;45784;-77
2023/09/24 11:30:50;;;;;;;;;0.33;0.33;;;;;32.60;23.07;100534.09;5073789;27;45592;-77
2023/09/24 11:33:23;;;;;;;;;0.00;0.00;;;;;32.45;24.33;100543.97;5065891;28;45403;-77
2023/09/24 11:35:51;;;;;;;;;0.00;0.00;;;;;32.16;23.23;100527.72;5083406;27;45500;-78
2023/09/24 11:38:35;;;;;;;;;0.00;0.00;;;;;32.09;24.36;100520.94;5077208;28;45517;-77